Time;durP1;ratioP1;P1;durP2;ratioP2;P2;SDS_P1;SDS_P2;PMS_P1;PMS_P2;Temp;Humidity;BMP_temperature;BMP_pressure;BME280_temperature;BME280_humidity;BME280_pressure;Samples;Min_cycle;Max_cycle;Signal;HPM_P1;HPM_P2
2022/02/02 00:01:04;;;;;;;32.72;22.13;;;23.70;99.90;;;;;;4212329;28;20060;-72
2022/02/02 00:03:10;;;;;;;30.23;22.92;;;23.70;99.90;;;;;;4199524;28;20036;-72
2022/02/02 00:05:28;;;;;;;28.98;21.40;;;23.70;99.90;;;;;;4190065;28;20498;-71
2022/02/02 00:07:45;;;;;;;25.27;20.75;;;23.70;99.90;;;;;;4204209;28;20044;-72
2022/02/02 00:09:57;;;;;;;30.80;21.77;;;23.70;99.90;;;;;;4203913;28;20390;-71
2022/02/02 00:14:23;;;;;;;26.00;21.38;;;23.70;99.90;;;;;;4195226;28;20051;-72
2022/02/02 00:21:17;;;;;;;35.88;22.92;;;23.80;99.90;;;;;;4222616;28;20074;-71
2022/02/02 00:23:26;;;;;;;31.30;22.38;;;23.70;99.90;;;;;;4220676;28;20047;-71
2022/02/02 00:25:36;;;;;;;31.95;23.95;;;23.80;99.90;;;;;;4225775;28;20051;-71
2022/02/02 00:27:42;;;;;;;27.88;22.65;;;23.80;99.90;;;;;;4229627;28;20039;-72
2022/02/02 00:29:52;;;;;;;33.47;24.90;;;23.90;99.90;;;;;;4223161;28;20039;-71
2022/02/02 00:32:05;;;;;;;35.25;24.98;;;23.90;99.90;;;;;;4219178;28;20040;-71
2022/02/02 00:34:14;;;;;;;31.15;24.15;;;23.90;99.90;;;;;;4221683;28;20044;-66
2022/02/02 00:36:23;;;;;;;32.50;23.65;;;23.90;99.90;;;;;;4216595;28;20056;-71
2022/02/02 00:38:28;;;;;;;32.45;24.73;;;24.00;99.90;;;;;;4198146;28;20045;-70
2022/02/02 00:40:32;;;;;;;29.90;23.15;;;24.00;99.90;;;;;;4215932;28;20529;-71
2022/02/02 00:42:36;;;;;;;38.28;22.10;;;24.00;99.90;;;;;;4220441;28;20127;-67
2022/02/02 00:44:45;;;;;;;31.02;21.92;;;24.00;99.90;;;;;;4214982;28;20102;-72
2022/02/02 00:46:50;;;;;;;28.77;22.48;;;24.00;99.90;;;;;;4214356;28;20479;-72
2022/02/02 00:49:00;;;;;;;33.95;23.17;;;24.00;99.90;;;;;;4214093;28;20052;-72
2022/02/02 00:51:04;;;;;;;31.15;23.67;;;24.00;99.90;;;;;;4222780;28;20048;-73
2022/02/02 00:53:10;;;;;;;30.65;23.35;;;24.00;99.90;;;;;;4213886;28;20040;-73
2022/02/02 00:55:14;;;;;;;30.73;23.05;;;24.00;99.90;;;;;;4214052;28;20069;-73
2022/02/02 00:57:18;;;;;;;30.77;22.77;;;24.00;99.90;;;;;;4214199;28;20565;-73
2022/02/02 00:59:22;;;;;;;35.25;25.02;;;24.00;99.90;;;;;;4214136;28;20044;-73
2022/02/02 01:01:27;;;;;;;30.98;23.77;;;24.10;99.90;;;;;;4224397;28;20044;-73
2022/02/02 01:03:33;;;;;;;30.73;23.92;;;24.10;99.90;;;;;;4229496;28;20059;-72
2022/02/02 01:05:37;;;;;;;31.95;23.95;;;24.10;99.90;;;;;;4197179;28;20048;-74
2022/02/02 01:12:35;;;;;;;30.20;21.73;;;24.20;99.90;;;;;;4226892;28;20078;-73
2022/02/02 01:21:31;;;;;;;23.65;19.58;;;24.10;99.90;;;;;;4213920;28;20657;-72
2022/02/02 01:28:11;;;;;;;24.27;18.85;;;24.00;99.90;;;;;;4214364;28;20048;-73
2022/02/02 01:30:16;;;;;;;28.95;18.63;;;24.10;99.90;;;;;;4218985;28;20104;-73
2022/02/02 01:32:21;;;;;;;27.65;19.33;;;24.10;99.90;;;;;;4227181;28;20035;-73
2022/02/02 01:34:25;;;;;;;25.70;18.40;;;24.20;99.90;;;;;;4224157;28;20571;-72
2022/02/02 01:36:30;;;;;;;26.98;18.92;;;24.20;99.90;;;;;;4225340;28;20052;-71
2022/02/02 01:38:35;;;;;;;27.92;18.20;;;24.30;99.90;;;;;;4218431;28;20409;-72
2022/02/02 01:40:45;;;;;;;22.35;17.95;;;24.30;99.90;;;;;;4221822;28;20059;-72
2022/02/02 01:42:56;;;;;;;21.27;17.52;;;24.40;99.70;;;;;;4219747;28;20142;-70
2022/02/02 01:45:11;;;;;;;23.48;16.77;;;24.40;99.60;;;;;;4218963;28;20062;-72
2022/02/02 01:47:16;;;;;;;24.23;16.90;;;24.30;99.90;;;;;;4202687;28;20051;-72
2022/02/02 01:51:59;;;;;;;25.08;16.95;;;24.30;99.90;;;;;;4222614;28;20223;-71
2022/02/02 01:56:22;;;;;;;22.13;16.15;;;24.30;99.70;;;;;;4218581;28;20048;-73
2022/02/02 02:00:34;;;;;;;20.45;15.90;;;24.40;99.20;;;;;;4147588;28;20052;-71
2022/02/02 02:02:39;;;;;;;18.90;14.98;;;24.50;99.10;;;;;;4146745;28;20164;-72
2022/02/02 02:04:43;;;;;;;19.13;14.80;;;24.60;99.10;;;;;;4141785;28;20498;-72
2022/02/02 02:06:47;;;;;;;19.95;15.13;;;24.70;99.00;;;;;;4147228;28;20084;-73
2022/02/02 02:08:52;;;;;;;19.58;14.25;;;24.60;99.10;;;;;;4126821;28;20767;-73
2022/02/02 02:10:57;;;;;;;20.20;14.20;;;24.60;99.10;;;;;;4129168;28;20540;-72
2022/02/02 02:13:08;;;;;;;20.42;14.68;;;24.60;98.50;;;;;;4144509;28;20129;-72
2022/02/02 02:15:15;;;;;;;22.50;14.82;;;24.60;98.30;;;;;;4147132;28;20057;-72
2022/02/02 02:17:22;;;;;;;19.13;15.77;;;24.50;98.20;;;;;;4145703;28;20175;-71
2022/02/02 02:19:26;;;;;;;25.05;15.70;;;24.50;98.30;;;;;;4141800;28;20104;-72
2022/02/02 02:21:31;;;;;;;19.23;16.00;;;24.40;98.60;;;;;;4144605;28;20657;-71
2022/02/02 02:23:35;;;;;;;20.40;15.27;;;24.50;98.40;;;;;;4145621;28;20051;-71
2022/02/02 02:25:42;;;;;;;19.42;14.45;;;24.70;98.60;;;;;;4143223;28;20049;-73
2022/02/02 02:27:46;;;;;;;22.02;14.32;;;24.70;98.50;;;;;;4127784;28;20050;-72
2022/02/02 02:57:01;;;;;;;18.20;12.48;;;25.10;96.60;;;;;;4218506;28;20039;-72
2022/02/02 02:59:13;;;;;;;25.58;12.20;;;25.10;96.60;;;;;;4216723;28;20048;-71
2022/02/02 03:01:30;;;;;;;18.63;12.40;;;25.20;96.50;;;;;;4220843;28;20050;-71
2022/02/02 03:54:05;;;;;;;14.45;11.27;;;25.80;95.00;;;;;;4227314;28;20056;-69
2022/02/02 03:58:26;;;;;;;13.40;11.38;;;25.50;95.10;;;;;;4216167;28;20043;-70
2022/02/02 04:03:04;;;;;;;15.30;11.00;;;25.60;94.40;;;;;;4226592;28;20558;-69
2022/02/02 04:07:31;;;;;;;17.50;10.60;;;25.50;94.90;;;;;;4212082;28;20067;-64
2022/02/02 04:09:37;;;;;;;13.65;11.23;;;25.70;94.60;;;;;;4211564;28;20044;-65
2022/02/02 04:11:52;;;;;;;18.13;11.27;;;25.90;94.40;;;;;;4216273;28;20055;-64
2022/02/02 04:55:03;;;;;;;13.20;9.00;;;26.00;92.80;;;;;;4214418;28;20044;-64
2022/02/02 05:02:19;;;;;;;11.65;8.25;;;26.20;92.80;;;;;;4215723;28;20048;-64
2022/02/02 05:06:35;;;;;;;10.60;7.85;;;26.70;92.30;;;;;;4220714;28;20051;-63
2022/02/02 05:08:52;;;;;;;11.30;8.23;;;26.70;92.10;;;;;;4220809;28;20053;-63
2022/02/02 05:11:15;;;;;;;11.65;8.25;;;26.60;92.70;;;;;;4221082;28;20032;-63
2022/02/02 05:20:36;;;;;;;14.18;8.60;;;26.10;93.10;;;;;;4221755;28;20561;-63
2022/02/02 05:51:49;;;;;;;12.10;8.65;;;26.40;92.40;;;;;;4211605;28;20048;-64
2022/02/02 05:53:55;;;;;;;11.63;8.90;;;26.40;92.20;;;;;;4212368;28;20424;-65
2022/02/02 05:56:02;;;;;;;13.55;8.85;;;26.60;92.60;;;;;;4212669;28;20120;-65
2022/02/02 05:58:08;;;;;;;13.88;8.93;;;26.50;92.70;;;;;;4212817;28;20126;-64
2022/02/02 06:00:13;;;;;;;11.73;8.80;;;26.60;92.50;;;;;;4210464;28;20428;-64
2022/02/02 06:02:23;;;;;;;10.25;8.93;;;26.60;92.90;;;;;;4215793;28;20035;-64
2022/02/02 06:04:29;;;;;;;15.77;8.75;;;26.40;92.20;;;;;;4222121;28;20040;-65
2022/02/02 06:06:33;;;;;;;11.00;7.85;;;26.50;92.60;;;;;;4206405;28;20089;-65
2022/02/02 06:08:44;;;;;;;11.05;8.60;;;26.40;92.50;;;;;;4220846;28;20053;-64
2022/02/02 06:10:48;;;;;;;11.75;8.93;;;26.50;92.60;;;;;;4227737;28;20059;-64
2022/02/02 06:12:54;;;;;;;12.57;9.35;;;26.60;92.70;;;;;;4216451;28;20348;-65
2022/02/02 06:15:00;;;;;;;13.10;9.90;;;26.60;92.50;;;;;;4221188;28;20126;-64
2022/02/02 06:17:07;;;;;;;13.15;9.32;;;26.60;92.60;;;;;;4220332;28;20070;-64
2022/02/02 06:19:13;;;;;;;12.07;9.30;;;26.70;92.60;;;;;;4219130;28;20062;-64
2022/02/02 06:21:18;;;;;;;14.45;9.45;;;26.90;92.50;;;;;;4218370;28;20044;-64
2022/02/02 06:23:30;;;;;;;10.57;9.25;;;26.90;92.40;;;;;;4227365;28;20059;-65
2022/02/02 06:25:34;;;;;;;12.50;9.32;;;26.80;92.50;;;;;;4217619;28;20043;-65
2022/02/02 06:27:41;;;;;;;10.90;8.40;;;26.80;92.70;;;;;;4220583;28;20594;-64
2022/02/02 06:29:46;;;;;;;9.73;8.27;;;26.90;92.50;;;;;;4221678;28;20055;-64
2022/02/02 06:31:50;;;;;;;13.80;9.15;;;26.80;92.40;;;;;;4221161;28;20047;-64
2022/02/02 06:33:59;;;;;;;10.95;9.10;;;26.80;92.60;;;;;;4215418;28;20074;-65
2022/02/02 06:36:05;;;;;;;11.80;8.98;;;26.90;92.50;;;;;;4220671;28;20044;-65
2022/02/02 06:38:09;;;;;;;12.45;9.07;;;27.10;92.00;;;;;;4221093;28;20109;-65
2022/02/02 06:40:14;;;;;;;12.75;9.15;;;27.10;92.30;;;;;;4220859;28;20367;-63
2022/02/02 06:42:19;;;;;;;13.07;9.18;;;27.10;92.10;;;;;;4220593;28;20089;-63
2022/02/02 06:44:24;;;;;;;12.05;8.70;;;27.10;92.10;;;;;;4219123;28;20796;-64
2022/02/02 06:46:32;;;;;;;10.38;8.50;;;27.20;92.30;;;;;;4220377;28;20070;-65
2022/02/02 06:48:36;;;;;;;9.63;8.23;;;27.20;91.70;;;;;;4217457;28;20054;-64
2022/02/02 06:50:44;;;;;;;13.23;9.38;;;27.20;91.70;;;;;;4221573;28;20074;-65
2022/02/02 06:53:22;;;;;;;12.75;8.70;;;27.10;92.00;;;;;;4220171;28;20596;-65
2022/02/02 06:55:37;;;;;;;12.90;9.38;;;27.20;92.00;;;;;;4208381;28;20047;-65
2022/02/02 06:58:08;;;;;;;12.95;9.68;;;27.00;92.20;;;;;;4219010;28;20154;-64
2022/02/02 07:09:40;;;;;;;12.00;9.52;;;27.50;91.70;;;;;;4211957;28;20036;-64
2022/02/02 07:14:13;;;;;;;13.38;9.70;;;27.50;91.80;;;;;;4211820;28;20043;-65
2022/02/02 07:23:16;;;;;;;13.15;8.98;;;27.70;91.70;;;;;;4217435;28;20798;-65
2022/02/02 07:34:30;;;;;;;187.07;18.27;;;27.80;91.90;;;;;;4208173;28;20131;-65
2022/02/02 07:36:38;;;;;;;71.85;12.15;;;27.80;92.00;;;;;;4213821;28;20063;-67
2022/02/02 07:39:07;;;;;;;56.50;11.27;;;27.90;91.90;;;;;;4207538;28;20052;-66
2022/02/02 07:41:15;;;;;;;28.70;10.30;;;27.90;91.50;;;;;;4202959;28;20036;-66
2022/02/02 07:43:30;;;;;;;18.45;9.25;;;27.90;91.50;;;;;;4207983;28;20063;-67
2022/02/02 07:45:35;;;;;;;12.07;8.68;;;28.00;91.60;;;;;;4209853;28;20036;-67
2022/02/02 07:47:46;;;;;;;13.43;9.23;;;27.90;91.60;;;;;;4206940;28;20438;-67
2022/02/02 07:49:53;;;;;;;11.15;8.85;;;27.90;91.30;;;;;;4210084;28;20124;-67
2022/02/02 07:51:58;;;;;;;11.13;9.82;;;27.80;91.70;;;;;;4213850;28;20047;-67
2022/02/02 07:54:05;;;;;;;13.77;9.48;;;27.90;91.70;;;;;;4212833;28;20074;-67
2022/02/02 07:56:14;;;;;;;12.68;9.30;;;27.90;91.90;;;;;;4208517;28;20036;-66
2022/02/02 07:58:22;;;;;;;12.00;9.15;;;27.90;91.90;;;;;;4210146;28;20040;-66
2022/02/02 08:00:27;;;;;;;16.20;9.25;;;28.00;92.00;;;;;;4211253;28;20154;-66
2022/02/02 08:04:39;;;;;;;14.07;10.10;;;28.10;92.10;;;;;;4210707;28;20047;-65
2022/02/02 08:06:50;;;;;;;15.75;9.13;;;28.10;92.00;;;;;;4220387;28;20071;-62
2022/02/02 08:08:55;;;;;;;13.45;9.48;;;28.10;91.80;;;;;;4204952;28;20079;-65
2022/02/02 08:11:04;;;;;;;14.25;8.80;;;28.10;92.00;;;;;;4215381;28;20047;-62
2022/02/02 08:13:19;;;;;;;20.80;9.50;;;28.20;92.30;;;;;;4195878;28;20048;-64
2022/02/02 08:15:27;;;;;;;15.80;9.38;;;28.20;92.40;;;;;;4211976;28;20123;-63
2022/02/02 08:17:32;;;;;;;14.82;9.70;;;28.30;92.40;;;;;;4216238;28;20539;-65
2022/02/02 08:19:38;;;;;;;13.60;10.00;;;28.30;92.30;;;;;;4214661;28;20064;-64
2022/02/02 08:21:44;;;;;;;11.50;9.05;;;28.20;92.00;;;;;;4212367;28;20050;-63
2022/02/02 08:23:49;;;;;;;10.80;9.40;;;28.30;92.30;;;;;;4216812;28;20036;-63
2022/02/02 08:25:57;;;;;;;21.92;9.73;;;28.30;92.50;;;;;;4214857;28;20051;-64
2022/02/02 08:28:05;;;;;;;23.55;10.05;;;28.40;92.60;;;;;;4214732;28;20655;-63
2022/02/02 08:30:11;;;;;;;11.52;9.80;;;28.40;92.60;;;;;;4218045;28;20123;-64
2022/02/02 08:32:16;;;;;;;13.85;10.43;;;28.40;92.50;;;;;;4198446;28;20033;-64
2022/02/02 08:34:20;;;;;;;15.00;9.45;;;28.40;92.30;;;;;;4214409;28;20403;-64
2022/02/02 08:36:25;;;;;;;13.85;9.60;;;28.40;92.20;;;;;;4196781;28;20037;-65
2022/02/02 08:43:06;;;;;;;14.98;9.93;;;28.50;92.30;;;;;;4210863;28;20079;-64
2022/02/02 08:45:18;;;;;;;14.95;10.60;;;28.40;91.90;;;;;;4215017;28;20127;-64
2022/02/02 08:47:23;;;;;;;12.30;9.85;;;28.50;91.90;;;;;;4213563;28;20040;-63
2022/02/02 08:49:31;;;;;;;15.75;9.73;;;28.40;91.70;;;;;;4211995;28;20448;-64
2022/02/02 08:51:43;;;;;;;12.57;9.50;;;28.50;91.80;;;;;;4213117;28;20583;-64
2022/02/02 08:58:23;;;;;;;12.90;10.73;;;28.60;91.80;;;;;;4213670;28;20052;-64
2022/02/02 09:00:32;;;;;;;14.85;9.98;;;28.60;91.80;;;;;;4213995;28;20036;-64
2022/02/02 09:02:40;;;;;;;12.65;9.50;;;28.60;91.70;;;;;;4215913;28;20032;-63
2022/02/02 09:07:02;;;;;;;13.18;9.55;;;28.60;91.90;;;;;;4211881;28;20044;-63
2022/02/02 09:09:14;;;;;;;14.38;9.52;;;28.60;91.80;;;;;;4213895;28;20135;-63
2022/02/02 09:35:56;;;;;;;12.77;10.57;;;28.60;92.20;;;;;;4218750;28;20066;-63
2022/02/02 09:38:02;;;;;;;12.23;10.63;;;28.60;92.00;;;;;;4222125;28;20031;-64
2022/02/02 09:42:15;;;;;;;13.60;10.38;;;28.60;92.20;;;;;;4221534;28;20055;-64
2022/02/02 09:44:23;;;;;;;13.95;10.18;;;28.60;92.20;;;;;;4217938;28;20459;-64
2022/02/02 09:46:34;;;;;;;13.50;11.18;;;28.60;92.20;;;;;;4221195;28;20044;-64
2022/02/02 09:48:54;;;;;;;14.23;11.27;;;28.60;92.10;;;;;;4219385;28;20040;-64
2022/02/02 09:51:05;;;;;;;13.45;10.15;;;28.60;92.10;;;;;;4208887;28;20063;-64
2022/02/02 09:53:18;;;;;;;14.90;11.18;;;28.60;92.00;;;;;;4211668;28;20187;-65
2022/02/02 09:55:52;;;;;;;;;;;28.60;92.10;;;;;;4224799;28;20095;-63
2022/02/02 09:58:24;;;;;;;14.52;10.95;;;28.60;92.00;;;;;;4218395;28;19920;-63
2022/02/02 10:04:45;;;;;;;17.42;12.10;;;28.50;92.20;;;;;;4213259;28;20063;-64
2022/02/02 10:14:15;;;;;;;57.58;14.13;;;28.50;92.40;;;;;;4211527;28;20522;-66
2022/02/02 10:16:25;;;;;;;88.85;15.45;;;28.50;92.40;;;;;;4209951;28;20039;-63
2022/02/02 10:18:32;;;;;;;93.40;17.33;;;28.50;92.50;;;;;;4211270;28;20134;-62
2022/02/02 10:20:37;;;;;;;32.38;13.80;;;28.50;92.30;;;;;;4212237;28;20478;-63
2022/02/02 10:22:46;;;;;;;47.60;14.00;;;28.50;92.30;;;;;;4209415;28;20044;-64
2022/02/02 10:24:53;;;;;;;35.03;13.00;;;28.50;92.40;;;;;;4212300;28;20502;-63
2022/02/02 10:26:58;;;;;;;41.00;15.70;;;28.40;92.50;;;;;;4212577;28;20048;-63
2022/02/02 10:29:09;;;;;;;25.65;13.75;;;28.40;92.60;;;;;;4213921;28;20430;-62
2022/02/02 10:31:13;;;;;;;30.88;14.45;;;28.40;92.60;;;;;;4223060;28;20131;-63
2022/02/02 10:33:26;;;;;;;24.00;14.85;;;28.40;92.60;;;;;;4213020;28;20044;-64
2022/02/02 10:35:44;;;;;;;16.42;13.52;;;28.30;92.70;;;;;;4178381;28;20523;-65
2022/02/02 10:37:58;;;;;;;19.27;12.73;;;28.30;92.80;;;;;;4196132;28;20060;-64
2022/02/02 10:40:03;;;;;;;16.27;12.70;;;28.20;93.00;;;;;;4195503;28;20040;-64
2022/02/02 10:42:08;;;;;;;16.20;12.25;;;28.20;92.80;;;;;;4200812;28;20084;-65
2022/02/02 10:44:18;;;;;;;16.25;12.77;;;28.20;92.80;;;;;;4211881;28;20568;-65
2022/02/02 10:46:38;;;;;;;16.42;13.45;;;28.20;92.70;;;;;;4213200;28;20371;-63
2022/02/02 10:48:54;;;;;;;20.10;12.30;;;28.20;92.80;;;;;;4229698;28;20127;-65
2022/02/02 10:51:13;;;;;;;17.73;12.50;;;28.20;92.90;;;;;;4218687;28;20051;-64
2022/02/02 10:57:48;;;;;;;17.40;13.18;;;28.00;94.10;;;;;;4213359;28;20044;-64
2022/02/02 11:00:04;;;;;;;21.63;14.35;;;28.00;94.00;;;;;;4216621;28;20104;-64
2022/02/02 11:08:40;;;;;;;19.40;12.45;;;28.00;94.00;;;;;;4209849;28;20052;-64
2022/02/02 11:10:44;;;;;;;17.60;12.95;;;28.00;94.10;;;;;;4204140;28;20052;-64
2022/02/02 11:12:49;;;;;;;18.00;12.95;;;28.00;94.30;;;;;;4214298;28;20760;-64
2022/02/02 11:15:06;;;;;;;18.50;13.85;;;27.90;94.40;;;;;;4212354;28;20402;-65
2022/02/02 11:17:34;;;;;;;18.67;14.07;;;27.90;94.60;;;;;;4210019;28;20478;-65
2022/02/02 11:19:38;;;;;;;22.05;15.50;;;27.90;94.80;;;;;;4210984;28;20036;-64
2022/02/02 11:21:43;;;;;;;25.23;16.15;;;27.90;95.00;;;;;;4214681;28;20040;-65
2022/02/02 11:24:18;;;;;;;24.30;17.98;;;27.80;95.20;;;;;;4215125;28;20067;-64
2022/02/02 11:26:50;;;;;;;25.77;19.45;;;27.80;95.40;;;;;;4214950;28;20044;-64
2022/02/02 11:28:54;;;;;;;22.02;18.63;;;27.80;95.50;;;;;;4210107;28;20048;-66
2022/02/02 11:31:03;;;;;;;22.83;18.42;;;27.80;95.80;;;;;;4211572;28;20044;-64
2022/02/02 11:33:28;;;;;;;25.95;18.27;;;27.70;96.00;;;;;;4211275;28;20131;-65
2022/02/02 11:35:46;;;;;;;24.88;17.95;;;27.70;96.10;;;;;;4211540;28;20039;-65
2022/02/02 11:38:19;;;;;;;23.90;17.73;;;27.70;96.20;;;;;;4214724;28;20184;-62
2022/02/02 11:40:23;;;;;;;20.90;16.48;;;27.70;96.40;;;;;;4216136;28;20043;-65
2022/02/02 11:42:44;;;;;;;28.50;18.38;;;27.70;96.40;;;;;;4210997;28;20505;-65
2022/02/02 11:45:01;;;;;;;24.70;16.45;;;27.60;96.40;;;;;;4211711;28;20127;-65
2022/02/02 11:47:40;;;;;;;25.67;16.58;;;27.60;96.50;;;;;;4210827;28;20046;-64
2022/02/02 11:49:48;;;;;;;;;;;27.60;96.70;;;;;;4215562;28;20130;-65
2022/02/02 11:51:58;;;;;;;26.13;17.73;;;27.60;97.00;;;;;;4215421;28;19958;-64
2022/02/02 11:54:03;;;;;;;23.42;16.77;;;27.60;97.10;;;;;;4214254;28;20048;-64
2022/02/02 11:56:07;;;;;;;24.17;17.35;;;27.60;97.30;;;;;;4216473;28;20479;-64
2022/02/02 11:58:27;;;;;;;22.52;17.33;;;27.60;97.50;;;;;;4195081;28;20044;-64
2022/02/02 12:00:43;;;;;;;24.90;18.42;;;27.60;97.60;;;;;;4212444;28;20162;-62
2022/02/02 12:05:31;;;;;;;25.90;18.00;;;27.60;97.80;;;;;;4213156;28;20048;-62
2022/02/02 12:08:02;;;;;;;26.40;18.10;;;27.60;98.00;;;;;;4221040;28;20066;-66
2022/02/02 12:10:15;;;;;;;27.73;17.55;;;27.50;98.20;;;;;;4232185;28;20051;-62
2022/02/02 12:49:25;;;;;;;28.20;18.95;;;27.10;98.80;;;;;;4214426;28;20375;-63
2022/02/02 12:54:24;;;;;;;30.70;21.40;;;27.10;98.80;;;;;;4213287;28;20044;-63
2022/02/02 12:56:23;;;;;;;29.70;21.15;;;27.20;99.00;;;;;;4212514;28;20410;-62
2022/02/02 12:58:35;;;;;;;31.08;21.48;;;27.20;99.20;;;;;;4215223;28;20040;-63
2022/02/02 13:02:48;;;;;;;36.85;23.58;;;27.20;99.40;;;;;;4211323;28;20138;-62
2022/02/02 13:04:55;;;;;;;32.17;23.17;;;27.10;99.50;;;;;;4215954;28;20076;-62
2022/02/02 13:07:12;;;;;;;35.90;24.55;;;27.10;99.70;;;;;;4212723;28;20059;-62
2022/02/02 13:09:16;;;;;;;33.42;23.40;;;27.00;99.80;;;;;;4230284;28;20043;-62
2022/02/02 13:11:32;;;;;;;31.65;24.02;;;27.00;99.90;;;;;;4229584;28;20044;-62
2022/02/02 13:13:36;;;;;;;37.10;24.02;;;27.00;99.90;;;;;;4225210;28;20036;-61
2022/02/02 13:20:17;;;;;;;38.03;25.08;;;27.00;99.90;;;;;;4216885;28;20058;-62
2022/02/02 13:22:21;;;;;;;33.53;25.42;;;26.90;99.90;;;;;;4213631;28;20051;-62
2022/02/02 13:24:36;;;;;;;35.90;25.88;;;26.90;99.90;;;;;;4214932;28;20048;-62
2022/02/02 13:26:50;;;;;;;39.90;26.88;;;26.90;99.90;;;;;;4208522;28;20067;-62
2022/02/02 13:31:28;;;;;;;40.13;28.73;;;26.90;99.90;;;;;;4220701;28;20067;-60
2022/02/02 13:33:38;;;;;;;43.97;28.90;;;26.90;99.90;;;;;;4216528;28;20047;-62
2022/02/02 13:35:56;;;;;;;41.45;28.02;;;26.90;99.80;;;;;;4213833;28;20444;-62
2022/02/02 13:38:16;;;;;;;39.92;26.77;;;26.90;99.90;;;;;;4214337;28;20052;-62
2022/02/02 13:52:54;;;;;;;43.75;30.67;;;26.80;99.90;;;;;;4214048;28;20119;-62
2022/02/02 13:55:23;;;;;;;46.40;30.58;;;26.70;99.90;;;;;;4213064;28;20109;-62
2022/02/02 13:57:58;;;;;;;42.83;29.67;;;26.80;99.90;;;;;;4213154;28;20032;-62
2022/02/02 14:03:45;;;;;;;40.55;28.27;;;26.80;99.90;;;;;;4212139;28;19966;-62
2022/02/02 14:31:53;;;;;;;39.28;28.08;;;26.60;99.90;;;;;;4211514;28;20046;-66
2022/02/02 14:34:17;;;;;;;39.92;27.83;;;26.60;99.90;;;;;;4210612;28;20068;-67
2022/02/02 14:36:25;;;;;;;38.30;28.83;;;26.50;99.90;;;;;;4213128;28;20136;-66
2022/02/02 14:38:43;;;;;;;38.00;27.83;;;26.60;99.90;;;;;;4213136;28;20043;-66
2022/02/02 14:42:55;;;;;;;33.35;26.08;;;26.40;99.90;;;;;;4208784;28;20493;-66
2022/02/02 14:45:06;;;;;;;38.90;27.33;;;26.40;99.90;;;;;;4212989;28;20364;-66
2022/02/02 14:47:15;;;;;;;37.03;26.90;;;26.30;99.90;;;;;;4212533;28;20122;-67
2022/02/02 14:49:28;;;;;;;34.72;25.27;;;26.30;99.90;;;;;;4209950;28;20135;-66
2022/02/02 14:51:42;;;;;;;34.22;25.42;;;26.20;99.90;;;;;;4210018;28;20047;-66
2022/02/02 15:32:22;;;;;;;49.13;36.92;;;26.00;99.80;;;;;;4229462;28;20044;-66
2022/02/02 15:34:35;;;;;;;45.08;34.83;;;25.90;99.90;;;;;;4220738;28;20048;-65
2022/02/02 15:38:48;;;;;;;49.83;36.13;;;25.80;99.90;;;;;;4212347;28;20406;-65
2022/02/02 15:40:58;;;;;;;54.30;38.47;;;25.80;99.90;;;;;;4212070;28;20044;-66
2022/02/02 15:43:16;;;;;;;53.72;38.33;;;25.70;99.90;;;;;;4212342;28;20035;-65
2022/02/02 15:58:51;;;;;;;55.50;37.50;;;25.60;99.90;;;;;;4229095;28;20100;-67
2022/02/02 16:03:10;;;;;;;46.40;33.33;;;25.60;99.70;;;;;;4228184;28;20078;-66
2022/02/02 16:05:16;;;;;;;48.50;33.17;;;25.60;99.70;;;;;;4213672;28;20779;-66
2022/02/02 16:07:27;;;;;;;48.70;33.08;;;25.70;99.50;;;;;;4212366;28;20086;-66
2022/02/02 16:12:08;;;;;;;43.97;32.10;;;25.60;99.40;;;;;;4211999;28;20040;-66
2022/02/02 16:14:26;;;;;;;41.45;30.08;;;25.50;99.50;;;;;;4212061;28;20052;-67
2022/02/02 16:18:42;;;;;;;42.85;29.55;;;25.40;99.60;;;;;;4212345;28;20392;-66
2022/02/02 16:36:45;;;;;;;39.83;27.50;;;25.50;99.20;;;;;;4214903;28;20044;-66
2022/02/02 16:38:58;;;;;;;36.80;26.67;;;25.50;99.10;;;;;;4222873;28;20043;-66
2022/02/02 16:42:54;;;;;;;35.67;26.60;;;25.60;99.10;;;;;;4231721;28;20105;-66
2022/02/02 16:43:26;;;;;;;;;;;25.40;99.00;;;;;;4232213;28;20055;-66
2022/02/02 16:45:31;;;;;;;38.90;26.15;;;25.40;99.20;;;;;;4229399;28;19923;-66
2022/02/02 16:47:35;;;;;;;32.83;25.63;;;25.40;99.20;;;;;;4231983;28;20450;-66
2022/02/02 16:49:45;;;;;;;35.38;25.13;;;25.40;99.30;;;;;;4231961;28;20525;-66
2022/02/02 16:51:49;;;;;;;33.92;24.08;;;25.40;99.10;;;;;;4231384;28;20158;-66
2022/02/02 16:53:57;;;;;;;35.78;24.75;;;25.40;99.20;;;;;;4231847;28;20044;-66
2022/02/02 16:56:22;;;;;;;35.60;24.52;;;25.30;99.20;;;;;;4220317;28;20696;-66
2022/02/02 17:30:37;;;;;;;31.58;22.55;;;25.50;99.10;;;;;;4220745;28;20044;-66
2022/02/02 17:35:22;;;;;;;31.05;21.73;;;25.40;99.10;;;;;;4214163;28;20456;-66
2022/02/02 17:39:50;;;;;;;31.25;23.50;;;25.20;99.40;;;;;;4214268;28;20135;-66
2022/02/02 17:42:14;;;;;;;31.33;23.42;;;25.20;99.40;;;;;;4214106;28;20135;-66
2022/02/02 18:20:41;;;;;;;39.40;28.40;;;25.10;99.90;;;;;;4230136;28;20047;-66
2022/02/02 18:22:51;;;;;;;39.67;28.88;;;25.20;99.90;;;;;;4230111;28;20100;-66
2022/02/02 18:25:07;;;;;;;38.47;27.55;;;25.20;99.90;;;;;;4230224;28;20054;-66
2022/02/02 18:27:19;;;;;;;33.90;27.20;;;25.20;99.90;;;;;;4229954;28;20058;-66
2022/02/02 18:52:03;;;;;;;32.70;23.00;;;24.90;99.90;;;;;;4212871;28;20494;-63
2022/02/02 18:58:43;;;;;;;35.03;22.48;;;25.00;99.90;;;;;;4228887;28;20046;-62
2022/02/02 19:52:27;;;;;;;30.67;23.30;;;24.40;99.90;;;;;;4229125;28;20055;-66
2022/02/02 19:56:55;;;;;;;26.75;21.05;;;24.40;99.90;;;;;;4212338;28;20483;-66
2022/02/02 20:10:35;;;;;;;28.27;21.13;;;24.30;99.90;;;;;;4232446;28;20494;-66
2022/02/02 20:12:41;;;;;;;27.08;20.35;;;24.20;99.90;;;;;;4232181;28;20077;-66
2022/02/02 20:14:46;;;;;;;28.55;19.92;;;24.00;99.90;;;;;;4232609;28;20116;-66
2022/02/02 20:16:51;;;;;;;28.42;20.10;;;24.00;99.90;;;;;;4232613;28;20047;-66
2022/02/02 20:19:01;;;;;;;25.88;20.17;;;24.00;99.90;;;;;;4232578;28;20043;-66
2022/02/02 20:21:08;;;;;;;27.40;19.65;;;23.80;99.90;;;;;;4231520;28;20043;-66
2022/02/02 20:23:14;;;;;;;28.30;19.70;;;24.00;99.90;;;;;;4232203;28;20047;-66
2022/02/02 20:25:19;;;;;;;26.38;19.75;;;24.10;99.90;;;;;;4232451;28;20031;-66
2022/02/02 20:27:23;;;;;;;29.55;18.42;;;24.20;99.90;;;;;;4231941;28;20055;-66
2022/02/02 20:29:27;;;;;;;25.83;19.10;;;24.30;99.90;;;;;;4232256;28;20475;-66
2022/02/02 20:31:32;;;;;;;28.80;19.52;;;24.30;99.90;;;;;;4230327;28;20112;-66
2022/02/02 20:33:37;;;;;;;25.52;19.25;;;24.30;99.90;;;;;;4229522;28;20644;-65
2022/02/02 20:35:42;;;;;;;27.00;19.70;;;24.30;99.90;;;;;;4214995;28;20760;-65
2022/02/02 20:37:46;;;;;;;28.08;18.95;;;24.30;99.90;;;;;;4215117;28;20118;-66
2022/02/02 20:41:58;;;;;;;25.88;20.02;;;24.30;99.90;;;;;;4215160;28;20044;-66
2022/02/02 20:44:06;;;;;;;26.42;19.00;;;24.30;99.90;;;;;;4214798;28;20040;-66
2022/02/02 21:06:48;;;;;;;25.20;19.65;;;24.10;99.90;;;;;;4214585;28;20822;-66
2022/02/02 21:13:45;;;;;;;26.15;20.05;;;24.10;99.90;;;;;;4215760;28;20581;-66
2022/02/02 21:15:50;;;;;;;30.05;22.40;;;24.20;99.90;;;;;;4214629;28;20054;-66
2022/02/02 21:17:58;;;;;;;31.27;24.08;;;24.10;99.90;;;;;;4214750;28;20109;-66
2022/02/02 21:20:12;;;;;;;27.92;21.52;;;24.10;99.90;;;;;;4213236;28;20564;-66
2022/02/02 21:22:18;;;;;;;26.88;20.00;;;24.10;99.90;;;;;;4214342;28;20051;-66
2022/02/02 21:28:46;;;;;;;24.50;20.30;;;24.10;99.90;;;;;;4214624;28;20048;-66
2022/02/02 21:30:51;;;;;;;26.38;20.15;;;24.00;99.90;;;;;;4223915;28;20065;-66
2022/02/02 21:32:55;;;;;;;32.03;25.38;;;24.00;99.90;;;;;;4230963;28;20058;-66
2022/02/02 21:35:05;;;;;;;28.85;22.10;;;24.00;99.90;;;;;;4217624;28;20376;-66
2022/02/02 21:37:10;;;;;;;29.92;20.65;;;24.00;99.90;;;;;;4196437;28;20052;-66
2022/02/02 21:39:22;;;;;;;29.45;23.52;;;23.90;99.90;;;;;;4214181;28;20534;-66
2022/02/02 21:41:34;;;;;;;32.65;23.92;;;23.90;99.90;;;;;;4214165;28;20044;-66
2022/02/02 21:43:38;;;;;;;31.63;21.33;;;24.00;99.90;;;;;;4202028;28;20050;-66
2022/02/02 21:45:43;;;;;;;26.67;22.15;;;23.90;99.90;;;;;;4231061;28;20807;-65
2022/02/02 21:47:47;;;;;;;30.55;22.60;;;23.80;99.90;;;;;;4212762;28;20144;-67
2022/02/02 21:49:56;;;;;;;32.63;22.15;;;23.90;99.90;;;;;;4230939;28;20092;-66
2022/02/02 21:52:04;;;;;;;30.88;21.25;;;23.90;99.90;;;;;;4230200;28;20390;-66
2022/02/02 21:54:09;;;;;;;32.35;20.17;;;23.90;99.90;;;;;;4223409;28;20456;-66
2022/02/02 21:56:14;;;;;;;25.98;19.42;;;23.90;99.90;;;;;;4213798;28;20131;-66
2022/02/02 21:58:19;;;;;;;28.83;20.42;;;23.90;99.90;;;;;;4213855;28;20433;-66
2022/02/02 22:00:23;;;;;;;26.00;20.70;;;23.80;99.90;;;;;;4214152;28;20131;-66